createdAt,value
2023-04-11T00:00:25.648Z,964.3100
2023-04-11T00:01:27.923Z,964.3100
2023-04-11T00:03:13.518Z,964.3700
2023-04-11T00:04:15.614Z,964.4800
2023-04-11T00:05:17.793Z,964.5000
2023-04-11T00:06:20.069Z,964.5000
2023-04-11T00:07:22.362Z,964.5000
2023-04-11T00:08:24.667Z,964.5800
2023-04-11T00:09:24.926Z,964.6000
2023-04-11T00:10:27.150Z,964.6400
2023-04-11T00:11:29.513Z,964.7000
2023-04-11T00:12:31.777Z,964.7400
2023-04-11T00:13:34.071Z,964.7600
2023-04-11T00:14:36.434Z,964.7600
2023-04-11T00:15:36.548Z,964.8200
2023-04-11T00:16:38.919Z,964.8000
2023-04-11T00:17:41.213Z,964.7600
2023-04-11T00:18:43.490Z,964.7800
2023-04-11T00:19:45.887Z,964.7600
2023-04-11T00:20:48.141Z,964.7400
2023-04-11T00:21:48.332Z,964.7200
2023-04-11T00:22:50.643Z,964.7000
2023-04-11T00:23:52.954Z,964.7200
2023-04-11T00:24:55.377Z,964.7200
2023-04-11T00:25:57.658Z,964.7000
2023-04-11T00:26:59.908Z,964.6400
2023-04-11T00:28:00.068Z,964.6200
2023-04-11T00:29:02.279Z,964.5800
2023-04-11T00:30:04.587Z,964.5800
2023-04-11T00:31:06.657Z,964.5800
2023-04-11T00:32:08.989Z,964.6400
2023-04-11T00:33:11.113Z,964.6600
2023-04-11T00:34:13.400Z,964.6800
2023-04-11T00:35:15.694Z,964.6400
2023-04-11T00:36:18.081Z,964.6200
2023-04-11T00:37:18.190Z,964.6200
2023-04-11T00:38:20.452Z,964.5300
2023-04-11T00:39:22.751Z,964.4100
2023-04-11T00:40:25.168Z,964.3300
2023-04-11T00:41:27.398Z,964.3300
2023-04-11T00:42:29.718Z,964.3100
2023-04-11T00:43:29.859Z,964.2500
2023-04-11T00:44:32.186Z,964.2300
2023-04-11T00:45:34.589Z,964.2100
2023-04-11T00:46:36.707Z,964.1700
2023-04-11T00:47:39.040Z,964.1900
2023-04-11T00:48:41.241Z,964.1700
2023-04-11T00:49:43.484Z,964.1300
2023-04-11T00:50:45.815Z,963.9900
2023-04-11T00:51:45.915Z,964.0100
2023-04-11T00:52:48.176Z,963.9500
2023-04-11T00:53:50.401Z,963.9700
2023-04-11T00:54:52.638Z,963.9400
2023-04-11T00:55:54.939Z,963.9400
2023-04-11T00:56:57.168Z,963.9700
2023-04-11T00:57:59.435Z,963.9200
2023-04-11T00:59:01.678Z,963.9200
2023-04-11T01:00:01.878Z,963.9200
2023-04-11T01:01:04.174Z,963.8400
2023-04-11T01:02:06.385Z,963.8600
2023-04-11T01:03:08.827Z,963.8200
2023-04-11T01:04:10.964Z,963.8200
2023-04-11T01:05:13.255Z,963.8800
2023-04-11T01:06:15.429Z,963.9700
2023-04-11T01:07:17.703Z,964.0100
2023-04-11T01:08:19.965Z,964.0500
2023-04-11T01:09:20.156Z,964.0300
2023-04-11T01:10:22.508Z,964.1100
2023-04-11T01:11:24.912Z,964.1500
2023-04-11T01:12:27.067Z,964.0700
2023-04-11T01:13:29.289Z,964.0100
2023-04-11T01:14:31.515Z,964.0100
2023-04-11T01:15:33.793Z,964.1100
2023-04-11T01:16:34.012Z,964.1100
2023-04-11T01:17:36.244Z,964.0100
2023-04-11T01:18:38.433Z,963.9200
2023-04-11T01:19:40.736Z,963.8000
2023-04-11T01:20:43.018Z,963.6800
2023-04-11T01:21:45.418Z,963.6800
2023-04-11T01:22:47.595Z,963.6600
2023-04-11T01:23:47.744Z,963.6800
2023-04-11T01:24:49.997Z,963.6800
2023-04-11T01:25:52.262Z,963.6800
2023-04-11T01:26:54.657Z,963.8400
2023-04-11T01:27:56.842Z,963.8800
2023-04-11T01:28:59.133Z,963.8800
2023-04-11T01:30:01.468Z,963.9000
2023-04-11T01:31:03.757Z,963.8400
2023-04-11T01:32:03.871Z,963.8200
2023-04-11T01:33:06.253Z,963.7800
2023-04-11T01:34:08.434Z,963.7200
2023-04-11T01:35:10.697Z,963.6800
2023-04-11T01:36:13.043Z,963.6800
2023-04-11T01:37:15.292Z,963.6600
2023-04-11T01:38:17.558Z,963.6400
2023-04-11T01:39:17.687Z,963.6400
2023-04-11T01:40:19.958Z,963.6400
2023-04-11T01:41:22.252Z,963.6600
2023-04-11T01:42:24.695Z,963.7800
2023-04-11T01:43:26.816Z,963.8200
2023-04-11T01:44:29.089Z,963.8400
2023-04-11T01:45:29.250Z,963.8800
2023-04-11T01:46:31.575Z,963.9200
2023-04-11T01:47:33.903Z,963.8800
2023-04-11T01:48:36.254Z,963.8600
2023-04-11T01:49:38.462Z,963.8800
2023-04-11T01:50:40.724Z,963.8800
2023-04-11T01:51:43.067Z,963.8400
2023-04-11T01:52:43.187Z,963.8000
2023-04-11T01:53:45.409Z,963.8200
2023-04-11T01:54:47.753Z,963.7800
2023-04-11T01:55:50.071Z,963.7000
2023-04-11T01:56:50.296Z,963.6600
2023-04-11T01:57:52.610Z,963.6400
2023-04-11T01:58:55.245Z,963.6200
2023-04-11T01:59:57.324Z,963.5800
2023-04-11T02:00:59.703Z,963.5400
2023-04-11T02:02:02.015Z,963.4800
2023-04-11T02:03:02.218Z,963.4700
2023-04-11T02:04:04.514Z,963.4500
2023-04-11T02:05:06.763Z,963.4800
2023-04-11T02:06:09.076Z,963.3500
2023-04-11T02:07:11.384Z,963.3700
2023-04-11T02:08:13.759Z,963.3900
2023-04-11T02:09:13.942Z,963.3300
2023-04-11T02:10:16.256Z,963.3700
2023-04-11T02:11:18.599Z,963.3100
2023-04-11T02:12:18.765Z,963.3300
2023-04-11T02:13:21.136Z,963.3700
2023-04-11T02:14:21.298Z,963.4100
2023-04-11T02:15:23.582Z,963.4100
2023-04-11T02:16:25.913Z,963.4300
2023-04-11T02:17:28.248Z,963.4100
2023-04-11T02:18:30.475Z,963.4500
2023-04-11T02:19:32.749Z,963.4500
2023-04-11T02:20:35.076Z,963.4700
2023-04-11T02:21:35.129Z,963.4500
2023-04-11T02:22:37.401Z,963.5000
2023-04-11T02:23:39.735Z,963.4700
2023-04-11T02:24:42.001Z,963.4800
2023-04-11T02:25:44.338Z,963.4700
2023-04-11T02:26:44.518Z,963.4800
2023-04-11T02:27:46.813Z,963.5400
2023-04-11T02:28:49.132Z,963.5400
2023-04-11T02:29:51.406Z,963.6200
2023-04-11T02:30:53.789Z,963.6400
2023-04-11T02:31:56.109Z,963.6400
2023-04-11T02:32:58.334Z,963.6800
2023-04-11T02:33:58.457Z,963.6800
2023-04-11T02:35:00.726Z,963.7200
2023-04-11T02:36:03.186Z,963.6600
2023-04-11T02:37:05.225Z,963.6800
2023-04-11T02:38:07.451Z,963.7200
2023-04-11T02:39:09.912Z,963.7200
2023-04-11T02:40:11.999Z,963.6800
2023-04-11T02:41:14.282Z,963.6800
2023-04-11T02:42:14.426Z,963.6600
2023-04-11T02:43:16.668Z,963.6400
2023-04-11T02:44:18.970Z,963.6800
2023-04-11T02:45:21.232Z,963.7000
2023-04-11T02:46:23.521Z,963.6200
2023-04-11T02:47:25.778Z,963.7000
2023-04-11T02:48:28.015Z,963.7000
2023-04-11T02:49:30.320Z,963.7600
2023-04-11T02:50:32.615Z,963.7600
2023-04-11T02:51:32.754Z,963.7200
2023-04-11T02:52:35.018Z,963.7800
2023-04-11T02:53:37.319Z,963.7600
2023-04-11T02:54:39.635Z,963.8000
2023-04-11T02:55:41.942Z,963.9000
2023-04-11T02:56:44.206Z,963.9900
2023-04-11T02:57:44.381Z,964.0500
2023-04-11T02:58:46.680Z,964.1700
2023-04-11T02:59:48.979Z,964.2700
2023-04-11T03:00:51.267Z,964.3700
2023-04-11T03:01:53.662Z,964.2300
2023-04-11T03:02:55.905Z,964.3100
2023-04-11T03:03:56.111Z,964.3300
2023-04-11T03:04:58.294Z,964.2100
2023-04-11T03:06:00.574Z,964.1700
2023-04-11T03:07:02.891Z,964.0300
2023-04-11T03:08:05.174Z,963.9700
2023-04-11T03:09:07.480Z,963.9700
2023-04-11T03:10:09.888Z,964.0300
2023-04-11T03:11:09.875Z,964.0700
2023-04-11T03:12:12.072Z,964.0500
2023-04-11T03:13:14.404Z,964.0500
2023-04-11T03:14:16.602Z,964.0100
2023-04-11T03:15:18.912Z,964.0500
2023-04-11T03:16:21.186Z,964.0100
2023-04-11T03:17:23.406Z,964.0100
2023-04-11T03:18:25.617Z,963.9900
2023-04-11T03:19:27.898Z,964.0300
2023-04-11T03:20:30.151Z,963.9900
2023-04-11T03:21:30.234Z,964.0300
2023-04-11T03:22:32.511Z,964.0300
2023-04-11T03:23:34.751Z,964.0300
2023-04-11T03:24:37.006Z,964.0300
2023-04-11T03:25:39.441Z,964.0500
2023-04-11T03:26:41.573Z,964.0900
2023-04-11T03:27:43.835Z,964.1300
2023-04-11T03:28:46.026Z,964.1500
2023-04-11T03:29:46.097Z,964.1100
2023-04-11T03:30:48.378Z,964.1300
2023-04-11T03:31:50.905Z,964.0700
2023-04-11T03:32:53.110Z,964.0900
2023-04-11T03:33:55.215Z,964.0700
2023-04-11T03:34:57.460Z,964.1500
2023-04-11T03:35:59.849Z,964.0700
2023-04-11T03:37:01.968Z,964.1300
2023-04-11T03:38:04.184Z,964.0900
2023-04-11T03:39:06.375Z,964.0700
2023-04-11T03:40:06.515Z,964.0700
2023-04-11T03:41:08.810Z,964.0700
2023-04-11T03:42:11.063Z,964.0900
2023-04-11T03:43:13.365Z,964.0100
2023-04-11T03:44:15.617Z,964.0100
2023-04-11T03:45:17.880Z,964.0500
2023-04-11T03:46:20.244Z,964.0700
2023-04-11T03:47:22.417Z,964.0100
2023-04-11T03:48:22.591Z,964.2900
2023-04-11T03:49:24.898Z,964.3500
2023-04-11T03:50:27.249Z,964.1900
2023-04-11T03:51:29.689Z,964.1300
2023-04-11T03:52:31.867Z,964.1700
2023-04-11T03:53:34.202Z,964.1500
2023-04-11T03:54:36.429Z,964.1900
2023-04-11T03:55:38.754Z,964.1100
2023-04-11T03:56:41.193Z,964.1300
2023-04-11T03:58:32.927Z,964.3700
2023-04-11T03:59:35.107Z,964.2900
2023-04-11T04:00:35.168Z,964.2700
2023-04-11T04:01:37.518Z,964.2700
2023-04-11T04:02:40.166Z,964.3900
2023-04-11T04:03:42.357Z,964.3900
2023-04-11T04:04:44.365Z,964.4100
2023-04-11T04:05:46.496Z,964.4800
2023-04-11T04:06:48.743Z,964.5000
2023-04-11T04:07:51.085Z,964.4800
2023-04-11T04:08:53.144Z,964.3900
2023-04-11T04:09:55.373Z,964.4800
2023-04-11T04:10:57.582Z,964.5000
2023-04-11T04:11:59.820Z,964.5300
2023-04-11T04:12:59.935Z,964.5600
2023-04-11T04:14:02.141Z,964.5800
2023-04-11T04:15:04.356Z,964.5500
2023-04-11T04:16:06.609Z,964.6400
2023-04-11T04:17:08.817Z,964.6800
2023-04-11T04:18:11.089Z,964.7200
2023-04-11T04:19:13.361Z,964.7200
2023-04-11T04:20:15.609Z,964.7000
2023-04-11T04:21:17.851Z,964.7400
2023-04-11T04:22:20.109Z,964.7600
2023-04-11T04:23:20.248Z,964.6800
2023-04-11T04:24:22.487Z,964.7000
2023-04-11T04:25:25.978Z,964.7200
2023-04-11T04:26:25.819Z,964.7200
2023-04-11T04:27:28.092Z,964.6800
2023-04-11T04:28:30.439Z,964.7000
2023-04-11T04:29:32.552Z,964.7200
2023-04-11T04:30:34.741Z,964.7400
2023-04-11T04:31:36.998Z,964.7400
2023-04-11T04:32:39.209Z,964.8400
2023-04-11T04:33:39.288Z,964.8600
2023-04-11T04:34:41.549Z,964.8600
2023-04-11T04:35:43.874Z,964.7800
2023-04-11T04:36:46.073Z,964.9200
2023-04-11T04:37:46.282Z,964.8200
2023-04-11T04:38:48.535Z,964.9400
2023-04-11T04:39:50.630Z,964.8600
2023-04-11T04:40:52.803Z,964.8800
2023-04-11T04:41:55.014Z,964.9000
2023-04-11T04:42:55.154Z,964.9600
2023-04-11T04:43:57.747Z,964.8800
2023-04-11T04:44:59.653Z,965.0200
2023-04-11T04:46:01.925Z,964.9200
2023-04-11T04:47:02.055Z,965.0500
2023-04-11T04:48:04.369Z,965.0700
2023-04-11T04:49:06.578Z,965.1100
2023-04-11T04:50:08.756Z,965.0300
2023-04-11T04:51:10.987Z,965.0200
2023-04-11T04:52:11.157Z,965.0500
2023-04-11T04:53:13.252Z,965.0700
2023-04-11T04:54:15.699Z,964.8800
2023-04-11T04:55:17.791Z,965.0200
2023-04-11T04:56:20.021Z,964.9800
2023-04-11T04:57:22.372Z,965.0700
2023-04-11T04:58:24.706Z,965.0700
2023-04-11T04:59:26.998Z,965.0300
2023-04-11T05:00:29.265Z,965.1700
2023-04-11T05:01:31.649Z,965.0000
2023-04-11T05:02:34.088Z,964.9800
2023-04-11T05:03:36.336Z,964.9200
2023-04-11T05:04:38.568Z,964.9200
2023-04-11T05:05:40.852Z,964.9600
2023-04-11T05:06:43.188Z,964.9600
2023-04-11T05:07:45.560Z,964.9800
2023-04-11T05:08:47.887Z,965.0000
2023-04-11T05:09:50.291Z,965.0000
2023-04-11T05:10:52.584Z,965.0300
2023-04-11T05:11:52.752Z,965.0200
2023-04-11T05:12:55.076Z,965.0900
2023-04-11T05:13:57.781Z,965.0900
2023-04-11T05:14:59.820Z,965.1100
2023-04-11T05:16:02.034Z,965.1300
2023-04-11T05:17:04.375Z,965.0900
2023-04-11T05:18:06.629Z,965.1300
2023-04-11T05:19:06.698Z,965.1100
2023-04-11T05:20:09.088Z,965.0900
2023-04-11T05:21:11.344Z,965.1100
2023-04-11T05:22:13.549Z,965.1300
2023-04-11T05:23:13.685Z,965.2300
2023-04-11T05:24:15.955Z,965.1700
2023-04-11T05:25:18.326Z,965.2700
2023-04-11T05:26:20.524Z,965.2900
2023-04-11T05:27:20.585Z,965.3100
2023-04-11T05:28:22.866Z,965.1100
2023-04-11T05:29:25.147Z,965.2100
2023-04-11T05:30:27.557Z,965.0700
2023-04-11T05:31:27.523Z,965.0700
2023-04-11T05:32:29.775Z,965.1300
2023-04-11T05:34:25.788Z,965.0900
2023-04-11T05:35:27.999Z,965.1300
2023-04-11T05:36:29.220Z,965.0700
2023-04-11T05:37:30.355Z,965.0900
2023-04-11T05:38:32.606Z,965.1500
2023-04-11T05:39:34.938Z,965.1300
2023-04-11T05:40:37.180Z,965.1500
2023-04-11T05:41:39.507Z,965.1500
2023-04-11T05:42:41.733Z,965.0900
2023-04-11T05:43:43.987Z,965.0500
2023-04-11T05:44:46.183Z,965.2300
2023-04-11T05:45:46.277Z,965.2100
2023-04-11T05:46:50.371Z,965.1900
2023-04-11T05:47:50.775Z,965.2100
2023-04-11T05:48:52.965Z,965.1300
2023-04-11T05:49:55.239Z,965.1100
2023-04-11T05:50:57.454Z,965.0900
2023-04-11T05:51:59.803Z,965.1100
2023-04-11T05:53:01.908Z,965.0300
2023-04-11T05:54:04.107Z,965.0700
2023-04-11T05:55:06.370Z,965.0900
2023-04-11T05:56:08.580Z,965.0500
2023-04-11T05:57:11.008Z,965.0700
2023-04-11T05:58:11.033Z,965.1500
2023-04-11T05:59:13.324Z,965.1300
2023-04-11T06:00:15.632Z,965.1100
2023-04-11T06:01:17.928Z,965.1100
2023-04-11T06:02:20.441Z,965.1500
2023-04-11T06:03:22.605Z,965.1700
2023-04-11T06:04:22.876Z,965.2100
2023-04-11T06:05:24.984Z,965.2300
2023-04-11T06:06:27.276Z,965.2500
2023-04-11T06:07:29.576Z,965.2500
2023-04-11T06:08:31.863Z,965.1900
2023-04-11T06:09:34.334Z,965.1900
2023-04-11T06:10:34.269Z,965.1500
2023-04-11T06:11:36.494Z,965.1700
2023-04-11T06:12:38.832Z,965.1700
2023-04-11T06:13:41.053Z,965.1500
2023-04-11T06:14:43.331Z,965.1300
2023-04-11T06:15:45.589Z,965.0500
2023-04-11T06:16:47.875Z,965.0900
2023-04-11T06:17:50.282Z,965.0700
2023-04-11T06:18:50.264Z,965.0000
2023-04-11T06:19:52.538Z,965.0200
2023-04-11T06:20:54.861Z,965.0200
2023-04-11T06:21:57.106Z,965.0300
2023-04-11T06:22:59.504Z,965.0500
2023-04-11T06:24:01.674Z,965.1300
2023-04-11T06:25:03.979Z,965.1700
2023-04-11T06:26:06.250Z,965.2300
2023-04-11T06:27:06.381Z,965.2700
2023-04-11T06:28:08.708Z,965.2700
2023-04-11T06:29:10.923Z,965.2300
2023-04-11T06:30:13.220Z,965.1900
2023-04-11T06:31:15.550Z,965.1700
2023-04-11T06:32:17.745Z,965.1900
2023-04-11T06:33:20.063Z,965.2300
2023-04-11T06:34:22.119Z,965.2500
2023-04-11T06:35:24.277Z,965.2100
2023-04-11T06:36:26.560Z,965.2100
2023-04-11T06:37:26.672Z,965.2300
2023-04-11T06:38:29.075Z,965.2700
2023-04-11T06:39:31.242Z,965.3100
2023-04-11T06:40:33.568Z,965.2700
2023-04-11T06:41:35.830Z,965.2300
2023-04-11T06:42:38.082Z,965.2500
2023-04-11T06:43:40.472Z,965.2900
2023-04-11T06:44:40.473Z,965.3100
2023-04-11T06:45:42.727Z,965.3100
2023-04-11T06:46:45.065Z,965.2500
2023-04-11T06:47:47.433Z,965.2700
2023-04-11T06:48:49.751Z,965.2900
2023-04-11T06:49:51.933Z,965.3300
2023-04-11T06:50:54.214Z,965.3500
2023-04-11T06:51:54.382Z,965.4100
2023-04-11T06:52:56.712Z,965.3500
2023-04-11T06:53:59.083Z,965.3500
2023-04-11T06:55:01.361Z,965.3500
2023-04-11T06:56:03.665Z,965.3500
2023-04-11T06:57:05.993Z,965.3700
2023-04-11T06:58:06.156Z,965.4400
2023-04-11T06:59:08.527Z,965.4100
2023-04-11T07:00:10.771Z,965.4600
2023-04-11T07:01:13.077Z,965.3900
2023-04-11T07:02:15.393Z,965.4100
2023-04-11T07:03:17.739Z,965.3900
2023-04-11T07:04:18.047Z,965.3900
2023-04-11T07:05:20.139Z,965.4100
2023-04-11T07:06:22.451Z,965.3700
2023-04-11T07:07:24.777Z,965.3500
2023-04-11T07:08:27.117Z,965.2900
2023-04-11T07:09:29.557Z,965.3300
2023-04-11T07:10:29.605Z,965.3300
2023-04-11T07:11:31.874Z,965.3700
2023-04-11T07:12:34.116Z,965.3700
2023-04-11T07:13:36.360Z,965.4200
2023-04-11T07:14:38.773Z,965.4600
2023-04-11T07:15:40.953Z,965.4400
2023-04-11T07:16:43.465Z,965.5400
2023-04-11T07:17:43.417Z,965.5200
2023-04-11T07:18:45.644Z,965.6000
2023-04-11T07:19:47.931Z,965.6000
2023-04-11T07:20:50.190Z,965.6400
2023-04-11T07:21:52.478Z,965.5600
2023-04-11T07:22:54.761Z,965.6200
2023-04-11T07:23:57.299Z,965.5800
2023-04-11T07:24:57.205Z,965.6200
2023-04-11T07:25:59.451Z,965.6000
2023-04-11T07:27:01.835Z,965.6400
2023-04-11T07:28:04.043Z,965.6600
2023-04-11T07:29:08.773Z,965.6200
2023-04-11T07:30:08.830Z,965.6200
2023-04-11T07:31:08.898Z,965.6600
2023-04-11T07:32:11.213Z,965.6600
2023-04-11T07:33:13.571Z,965.7200
2023-04-11T07:34:15.907Z,965.6600
2023-04-11T07:35:18.341Z,965.7200
2023-04-11T07:36:20.563Z,965.7400
2023-04-11T07:37:20.664Z,965.7800
2023-04-11T07:38:22.968Z,965.8400
2023-04-11T07:39:25.270Z,965.8400
2023-04-11T07:40:27.672Z,965.8900
2023-04-11T07:41:29.888Z,965.8600
2023-04-11T07:42:27.431Z,965.9100
2023-04-11T07:43:30.213Z,965.8800
2023-04-11T07:44:30.228Z,965.8800
2023-04-11T07:45:32.690Z,965.9300
2023-04-11T07:46:34.565Z,965.9700
2023-04-11T07:47:36.846Z,965.9700
2023-04-11T07:48:39.025Z,965.9100
2023-04-11T07:49:41.221Z,965.9500
2023-04-11T07:50:43.369Z,965.9700
2023-04-11T07:51:45.591Z,966.0100
2023-04-11T07:52:47.880Z,966.0500
2023-04-11T07:53:50.138Z,966.0900
2023-04-11T07:54:52.426Z,966.3300
2023-04-11T07:55:56.538Z,966.0100
2023-04-11T07:56:56.971Z,966.0900
2023-04-11T07:57:57.125Z,966.0700
2023-04-11T07:58:59.408Z,966.1500
2023-04-11T08:00:01.711Z,966.1900
2023-04-11T08:01:04.136Z,966.1900
2023-04-11T08:02:06.385Z,966.2300
2023-04-11T08:03:08.961Z,966.2300
2023-04-11T08:04:11.039Z,966.2300
2023-04-11T08:05:11.121Z,966.2700
2023-04-11T08:06:13.414Z,966.2700
2023-04-11T08:07:15.597Z,966.2900
2023-04-11T08:08:17.895Z,966.3100
2023-04-11T08:09:20.172Z,966.3100
2023-04-11T08:10:22.502Z,966.3300
2023-04-11T08:11:22.765Z,966.3600
2023-04-11T08:12:25.005Z,966.3600
2023-04-11T08:13:27.321Z,966.3800
2023-04-11T08:14:29.675Z,966.3800
2023-04-11T08:15:32.021Z,966.4600
2023-04-11T08:16:32.274Z,966.4800
2023-04-11T08:17:34.470Z,966.5400
2023-04-11T08:18:36.605Z,966.5000
2023-04-11T08:19:38.873Z,966.4000
2023-04-11T08:20:41.143Z,966.4200
2023-04-11T08:21:43.532Z,966.4000
2023-04-11T08:22:45.665Z,966.4200
2023-04-11T08:23:47.920Z,966.4000
2023-04-11T08:24:50.159Z,966.3800
2023-04-11T08:25:50.252Z,966.3600
2023-04-11T08:26:52.649Z,966.3500
2023-04-11T08:27:54.774Z,966.3800
2023-04-11T08:28:57.076Z,966.4400
2023-04-11T08:29:59.365Z,966.5000
2023-04-11T08:31:01.734Z,966.5400
2023-04-11T08:32:04.174Z,966.5400
2023-04-11T08:33:04.332Z,966.5800
2023-04-11T08:34:07.569Z,966.6200
2023-04-11T08:35:08.813Z,966.6400
2023-04-11T08:36:11.219Z,966.6800
2023-04-11T08:37:13.493Z,966.7400
2023-04-11T08:38:15.681Z,966.7600
2023-04-11T08:39:17.957Z,966.8300
2023-04-11T08:40:18.097Z,966.8500
2023-04-11T08:41:20.489Z,966.8200
2023-04-11T08:42:22.772Z,966.8000
2023-04-11T08:43:24.936Z,966.7000
2023-04-11T08:44:27.220Z,966.7200
2023-04-11T08:45:29.485Z,966.7600
2023-04-11T08:46:29.608Z,966.8000
2023-04-11T08:47:31.950Z,966.8300
2023-04-11T08:48:34.136Z,966.8900
2023-04-11T08:49:36.412Z,966.9500
2023-04-11T08:50:38.719Z,966.9500
2023-04-11T08:51:40.997Z,966.9500
2023-04-11T08:52:45.109Z,966.9700
2023-04-11T08:53:43.472Z,966.9700
2023-04-11T08:54:45.751Z,966.9700
2023-04-11T08:55:48.002Z,966.9500
2023-04-11T08:56:50.256Z,966.9700
2023-04-11T08:57:52.550Z,966.9300
2023-04-11T08:58:54.676Z,966.9100
2023-04-11T08:59:56.940Z,966.8700
2023-04-11T09:00:59.309Z,966.8300
2023-04-11T09:02:01.630Z,966.8500
2023-04-11T09:03:01.806Z,966.8300
2023-04-11T09:04:03.804Z,966.8500
2023-04-11T09:05:06.006Z,966.9100
2023-04-11T09:06:08.293Z,966.9300
2023-04-11T09:07:10.408Z,966.9300
2023-04-11T09:08:12.643Z,966.9500
2023-04-11T09:09:14.898Z,967.0700
2023-04-11T09:10:17.120Z,967.0900
2023-04-11T09:12:43.203Z,967.0700
2023-04-11T09:13:45.359Z,967.0700
2023-04-11T09:14:47.636Z,967.0900
2023-04-11T09:15:49.801Z,967.0700
2023-04-11T09:16:51.978Z,967.0900
2023-04-11T09:17:54.233Z,967.0500
2023-04-11T09:18:56.692Z,967.0500
2023-04-11T09:19:58.655Z,967.0900
2023-04-11T09:21:00.872Z,967.1100
2023-04-11T09:22:03.105Z,967.1100
2023-04-11T09:23:05.314Z,967.0900
2023-04-11T09:24:07.546Z,967.0900
2023-04-11T09:25:09.776Z,966.9700
2023-04-11T09:27:40.172Z,966.9300
2023-04-11T09:28:42.240Z,966.9700
2023-04-11T09:29:44.559Z,966.9700
2023-04-11T09:30:46.663Z,966.9100
2023-04-11T09:31:48.950Z,966.9700
2023-04-11T09:32:51.042Z,966.9100
2023-04-11T09:33:53.369Z,966.8900
2023-04-11T09:34:55.634Z,966.8900
2023-04-11T09:35:57.888Z,966.9300
2023-04-11T09:37:00.101Z,967.0500
2023-04-11T09:38:02.374Z,967.1100
2023-04-11T09:39:04.646Z,967.1300
2023-04-11T09:40:05.789Z,967.0900
2023-04-11T09:41:07.028Z,966.9700
2023-04-11T09:42:09.283Z,966.9700
2023-04-11T09:43:11.496Z,966.9100
2023-04-11T09:44:13.728Z,967.0900
2023-04-11T09:45:16.089Z,967.0700
2023-04-11T09:46:18.283Z,967.0700
2023-04-11T09:47:20.501Z,966.9700
2023-04-11T09:48:29.210Z,967.0700
2023-04-11T09:49:24.892Z,967.1700
2023-04-11T09:50:25.116Z,967.1500
2023-04-11T09:51:36.553Z,967.1100
2023-04-11T09:52:29.502Z,967.0700
2023-04-11T09:53:31.741Z,966.9700
2023-04-11T09:54:33.992Z,967.0700
2023-04-11T09:55:36.283Z,967.1300
2023-04-11T09:56:38.422Z,967.0900
2023-04-11T09:57:40.661Z,966.9700
2023-04-11T09:58:42.913Z,966.9500
2023-04-11T09:59:45.147Z,966.9300
2023-04-11T10:00:45.384Z,966.8900
2023-04-11T10:01:47.620Z,966.9100
2023-04-11T10:02:50.005Z,966.8900
2023-04-11T10:03:52.065Z,966.8300
2023-04-11T10:04:54.353Z,966.9100
2023-04-11T10:05:56.680Z,966.9100
2023-04-11T10:06:58.783Z,966.8900
2023-04-11T10:08:01.054Z,966.9300
2023-04-11T10:09:01.256Z,966.9700
2023-04-11T10:10:03.583Z,967.1100
2023-04-11T10:11:05.887Z,966.9500
2023-04-11T10:12:08.211Z,966.9100
2023-04-11T10:13:10.557Z,967.0500
2023-04-11T10:14:12.880Z,966.9500
2023-04-11T10:15:13.095Z,967.1300
2023-04-11T10:16:15.554Z,967.1300
2023-04-11T10:17:21.305Z,967.1100
2023-04-11T10:18:20.078Z,967.0500
2023-04-11T10:19:22.407Z,966.9500
2023-04-11T10:20:24.734Z,967.0500
2023-04-11T10:21:25.044Z,967.0700
2023-04-11T10:22:27.223Z,967.0900
2023-04-11T10:23:29.548Z,967.0900
2023-04-11T10:24:31.858Z,967.1100
2023-04-11T10:25:34.141Z,967.1500
2023-04-11T10:26:36.540Z,967.1900
2023-04-11T10:27:36.544Z,967.1700
2023-04-11T10:28:38.806Z,967.2500
2023-04-11T10:29:41.058Z,967.3100
2023-04-11T10:30:43.313Z,967.3100
2023-04-11T10:31:45.586Z,967.2900
2023-04-11T10:32:47.846Z,967.3300
2023-04-11T10:33:50.094Z,967.3300
2023-04-11T10:34:50.231Z,967.3600
2023-04-11T10:35:52.533Z,967.4000
2023-04-11T10:36:54.853Z,967.3800
2023-04-11T10:37:57.008Z,967.4600
2023-04-11T10:38:59.264Z,967.5200
2023-04-11T10:40:01.545Z,967.5000
2023-04-11T10:41:03.819Z,967.5000
2023-04-11T10:42:06.136Z,967.4400
2023-04-11T10:43:08.337Z,967.4600
2023-04-11T10:44:08.417Z,967.5000
2023-04-11T10:45:10.692Z,967.4600
2023-04-11T10:46:12.968Z,967.4800
2023-04-11T10:47:15.351Z,967.4000
2023-04-11T10:48:17.570Z,967.4000
2023-04-11T10:49:19.814Z,967.4000
2023-04-11T10:50:22.133Z,967.4000
2023-04-11T10:51:24.432Z,967.3800
2023-04-11T10:52:24.658Z,967.3800
2023-04-11T10:53:26.903Z,967.3600
2023-04-11T10:54:29.242Z,967.3600
2023-04-11T10:55:31.552Z,967.3800
2023-04-11T10:56:33.898Z,967.3600
2023-04-11T10:57:34.164Z,967.3600
2023-04-11T10:58:34.237Z,967.3100
2023-04-11T10:59:36.566Z,967.2500
2023-04-11T11:00:38.908Z,967.2700
2023-04-11T11:02:43.947Z,967.2300
2023-04-11T11:03:43.855Z,967.2700
2023-04-11T11:04:46.118Z,967.3100
2023-04-11T11:05:48.351Z,967.3500
2023-04-11T11:06:56.722Z,967.3300
2023-04-11T11:07:53.072Z,967.2900
2023-04-11T11:08:55.344Z,967.2700
2023-04-11T11:09:57.659Z,967.2100
2023-04-11T11:11:00.000Z,967.2100
2023-04-11T11:12:00.158Z,967.1700
2023-04-11T11:13:02.399Z,967.1700
2023-04-11T11:14:04.617Z,967.1500
2023-04-11T11:15:06.863Z,967.1700
2023-04-11T11:16:09.224Z,967.1500
2023-04-11T11:17:11.376Z,967.1300
2023-04-11T11:18:13.756Z,967.1300
2023-04-11T11:19:15.907Z,967.1700
2023-04-11T11:20:18.198Z,967.1300
2023-04-11T11:22:20.548Z,967.1500
2023-04-11T11:23:22.802Z,967.0900
2023-04-11T11:24:24.991Z,967.1100
2023-04-11T11:25:27.278Z,967.1100
2023-04-11T11:26:29.563Z,967.1500
2023-04-11T11:27:31.874Z,967.1700
2023-04-11T11:28:35.221Z,967.1700
2023-04-11T11:29:34.317Z,967.1700
2023-04-11T11:30:36.602Z,967.1500
2023-04-11T11:31:38.915Z,967.1300
2023-04-11T11:32:41.204Z,967.1700
2023-04-11T11:33:43.601Z,967.1300
2023-04-11T11:34:45.767Z,967.0900
2023-04-11T11:35:48.088Z,967.1900
2023-04-11T11:36:50.372Z,967.1700
2023-04-11T11:37:52.676Z,967.2100
2023-04-11T11:38:52.895Z,967.2500
2023-04-11T11:39:55.126Z,967.3100
2023-04-11T11:40:57.398Z,967.3500
2023-04-11T11:41:59.665Z,967.3300
2023-04-11T11:43:01.896Z,967.3100
2023-04-11T11:44:04.314Z,967.3800
2023-04-11T11:45:06.443Z,967.3600
2023-04-11T11:46:09.101Z,967.3800
2023-04-11T11:47:08.963Z,967.4000
2023-04-11T11:48:11.301Z,967.4000
2023-04-11T11:49:13.733Z,967.3500
2023-04-11T11:50:16.019Z,967.3100
2023-04-11T11:51:16.166Z,967.2500
2023-04-11T11:52:18.466Z,967.2500
2023-04-11T11:53:20.791Z,967.2700
2023-04-11T11:54:23.198Z,967.2900
2023-04-11T11:55:25.459Z,967.2900
2023-04-11T11:56:27.746Z,967.3300
2023-04-11T11:57:27.902Z,967.3300
2023-04-11T11:58:30.229Z,967.2900
2023-04-11T11:59:32.599Z,967.2700
2023-04-11T12:00:34.981Z,967.2700
2023-04-11T12:01:37.294Z,967.3800
2023-04-11T12:02:40.007Z,967.4200
2023-04-11T12:03:39.655Z,967.3800
2023-04-11T12:04:42.246Z,967.4000
2023-04-11T12:05:44.248Z,967.3800
2023-04-11T12:06:46.611Z,967.3600
2023-04-11T12:07:48.945Z,967.3600
2023-04-11T12:08:51.319Z,967.3600
2023-04-11T12:09:51.575Z,967.3500
2023-04-11T12:10:53.879Z,967.2900
2023-04-11T12:11:56.256Z,967.2900
2023-04-11T12:12:58.581Z,967.2900
2023-04-11T12:14:00.902Z,967.2500
2023-04-11T12:15:01.244Z,967.2500